createdAt,value
2017-08-31T00:04:44.972Z,4.97
2017-08-31T00:09:48.203Z,3.83
2017-08-31T00:14:51.408Z,3.83
2017-08-31T00:19:54.585Z,4.27
2017-08-31T00:24:57.787Z,4.33
2017-08-31T00:30:00.976Z,4.27
2017-08-31T00:35:04.175Z,4.70
2017-08-31T00:40:07.360Z,4.50
2017-08-31T00:45:10.607Z,4.37
2017-08-31T00:50:13.821Z,4.53
2017-08-31T00:55:16.992Z,4.80
2017-08-31T01:00:20.201Z,4.30
2017-08-31T01:05:23.412Z,4.53
2017-08-31T01:10:26.609Z,4.50
2017-08-31T01:15:29.766Z,4.50
2017-08-31T01:20:32.944Z,4.47
2017-08-31T01:25:36.401Z,4.03
2017-08-31T01:30:39.599Z,4.23
2017-08-31T01:35:42.795Z,4.30
2017-08-31T01:40:45.985Z,4.80
2017-08-31T01:45:49.159Z,4.50
2017-08-31T01:50:52.375Z,5.27
2017-08-31T01:55:55.575Z,4.13
2017-08-31T02:00:58.827Z,3.70
2017-08-31T02:06:02.011Z,4.30
2017-08-31T02:11:05.234Z,5.30
2017-08-31T02:16:08.576Z,4.40
2017-08-31T02:21:11.782Z,4.67
2017-08-31T02:26:14.955Z,4.30
2017-08-31T02:31:18.160Z,5.43
2017-08-31T02:36:21.347Z,4.70
2017-08-31T02:41:24.523Z,5.20
2017-08-31T02:46:27.732Z,5.67
2017-08-31T02:51:30.937Z,5.10
2017-08-31T02:56:34.170Z,4.30
2017-08-31T03:01:37.376Z,4.73
2017-08-31T03:06:40.562Z,5.67
2017-08-31T03:11:43.826Z,5.10
2017-08-31T03:16:47.031Z,5.30
2017-08-31T03:21:50.249Z,5.00
2017-08-31T03:26:53.448Z,4.83
2017-08-31T03:31:56.663Z,5.37
2017-08-31T03:36:59.845Z,4.97
2017-08-31T03:42:03.038Z,4.90
2017-08-31T03:47:06.275Z,5.17
2017-08-31T03:52:09.535Z,4.83
2017-08-31T03:57:12.740Z,5.23
2017-08-31T04:02:16.001Z,5.30
2017-08-31T04:07:19.209Z,5.70
2017-08-31T04:12:22.421Z,6.30
2017-08-31T04:17:25.620Z,5.43
2017-08-31T04:22:28.884Z,6.70
2017-08-31T04:27:32.078Z,5.80
2017-08-31T04:32:35.287Z,6.30
2017-08-31T04:37:38.515Z,6.50
2017-08-31T04:42:41.729Z,5.90
2017-08-31T04:47:44.923Z,5.77
2017-08-31T04:52:48.134Z,6.60
2017-08-31T04:57:51.352Z,6.70
2017-08-31T05:02:54.552Z,5.80
2017-08-31T05:07:57.757Z,6.43
2017-08-31T05:13:00.959Z,7.53
2017-08-31T05:18:04.151Z,6.50
2017-08-31T05:23:07.352Z,7.73
2017-08-31T05:28:10.762Z,7.87
2017-08-31T05:33:13.984Z,7.30
2017-08-31T05:38:17.240Z,8.23
2017-08-31T05:43:20.413Z,7.03
2017-08-31T05:48:23.606Z,7.47
2017-08-31T05:53:26.842Z,7.77
2017-08-31T05:58:30.029Z,8.57
2017-08-31T06:03:33.219Z,8.30
2017-08-31T06:08:36.416Z,8.30
2017-08-31T06:13:39.610Z,8.17
2017-08-31T06:18:42.797Z,8.30
2017-08-31T06:23:45.997Z,7.17
2017-08-31T06:28:49.290Z,8.53
2017-08-31T06:33:52.500Z,8.10
2017-08-31T06:38:55.706Z,7.77
2017-08-31T06:43:58.910Z,7.50
2017-08-31T06:49:02.109Z,7.67
2017-08-31T06:54:05.306Z,7.00
2017-08-31T06:59:08.568Z,8.27
2017-08-31T07:04:11.764Z,7.50
2017-08-31T07:09:14.971Z,7.17
2017-08-31T07:14:18.184Z,7.40
2017-08-31T07:19:21.386Z,7.60
2017-08-31T07:24:24.608Z,6.70
2017-08-31T07:29:27.887Z,8.07
2017-08-31T07:34:31.106Z,7.30
2017-08-31T07:39:34.314Z,8.37
2017-08-31T07:44:37.526Z,7.27
2017-08-31T07:49:40.740Z,6.20
2017-08-31T07:54:44.025Z,7.20
2017-08-31T07:59:47.232Z,6.70
2017-08-31T08:04:50.511Z,2.40
2017-08-31T08:09:53.734Z,1.77
2017-08-31T08:14:56.989Z,0.80
2017-08-31T08:20:00.174Z,0.50
2017-08-31T08:25:03.314Z,0.67
2017-08-31T08:30:06.491Z,0.80
2017-08-31T08:35:09.664Z,0.57
2017-08-31T08:40:12.859Z,1.07
2017-08-31T08:45:16.026Z,0.90
2017-08-31T08:50:19.229Z,0.90
2017-08-31T09:00:31.901Z,1.10
2017-08-31T09:05:35.097Z,1.50
2017-08-31T09:10:38.334Z,1.53
2017-08-31T09:15:41.552Z,1.10
2017-08-31T09:20:44.745Z,1.37
2017-08-31T09:25:47.938Z,1.10
2017-08-31T09:30:51.177Z,1.20
2017-08-31T09:35:54.391Z,1.07
2017-08-31T09:40:57.598Z,1.17
2017-08-31T09:46:00.869Z,0.73
2017-08-31T09:51:04.080Z,0.70
2017-08-31T09:56:07.251Z,0.90
2017-08-31T10:01:10.461Z,1.27
2017-08-31T10:06:13.674Z,2.30
2017-08-31T10:11:16.884Z,3.17
2017-08-31T10:16:20.145Z,4.27
2017-08-31T10:21:23.319Z,3.20
2017-08-31T10:26:26.504Z,3.20
2017-08-31T10:31:29.732Z,3.10
2017-08-31T10:36:32.941Z,2.97
2017-08-31T10:41:36.155Z,2.83
2017-08-31T10:46:39.367Z,2.40
2017-08-31T10:51:42.571Z,2.27
2017-08-31T10:56:45.767Z,2.00
2017-08-31T11:01:48.977Z,1.83
2017-08-31T11:06:53.102Z,2.43
2017-08-31T11:11:56.296Z,2.00
2017-08-31T11:16:59.478Z,1.77
2017-08-31T11:22:02.698Z,1.57
2017-08-31T11:27:05.914Z,1.80
2017-08-31T11:32:09.211Z,2.80
2017-08-31T11:37:12.358Z,3.60
2017-08-31T11:42:15.594Z,4.67
2017-08-31T11:47:18.809Z,4.33
2017-08-31T11:52:21.990Z,4.53
2017-08-31T11:57:25.197Z,4.67
2017-08-31T12:02:28.409Z,4.67
2017-08-31T12:07:31.626Z,3.40
2017-08-31T12:12:34.845Z,3.47
2017-08-31T12:17:38.045Z,3.90
2017-08-31T12:22:41.267Z,3.60
2017-08-31T12:27:44.464Z,3.60
2017-08-31T12:32:47.665Z,3.07
2017-08-31T12:37:50.884Z,3.77
2017-08-31T12:42:54.081Z,3.60
2017-08-31T12:47:57.237Z,2.50
2017-08-31T12:53:00.483Z,1.97
2017-08-31T12:58:03.702Z,1.97
2017-08-31T13:03:06.909Z,1.93
2017-08-31T13:08:10.125Z,1.60
2017-08-31T13:13:13.333Z,1.50
2017-08-31T13:18:16.534Z,1.47
2017-08-31T13:23:19.747Z,1.80
2017-08-31T13:28:22.952Z,2.00
2017-08-31T13:33:26.155Z,1.77
2017-08-31T13:38:29.371Z,2.50
2017-08-31T13:43:32.584Z,2.07
2017-08-31T13:48:35.885Z,1.77
2017-08-31T13:53:39.046Z,1.80
2017-08-31T13:58:42.277Z,2.20
2017-08-31T14:03:45.487Z,2.17
2017-08-31T14:08:48.672Z,1.90
2017-08-31T14:13:51.928Z,2.80
2017-08-31T14:18:55.284Z,2.43
2017-08-31T14:23:58.490Z,2.20
2017-08-31T14:29:01.725Z,2.27
2017-08-31T14:34:04.940Z,2.00
2017-08-31T14:39:08.160Z,1.40
2017-08-31T14:44:11.386Z,1.20
2017-08-31T14:49:14.597Z,1.70
2017-08-31T14:54:17.805Z,1.97
2017-08-31T14:59:21.018Z,2.20
2017-08-31T15:04:24.217Z,2.37
2017-08-31T15:09:27.602Z,1.30
2017-08-31T15:14:30.799Z,1.20
2017-08-31T15:19:33.994Z,0.90
2017-08-31T15:24:37.227Z,1.07
2017-08-31T15:29:42.224Z,1.50
2017-08-31T15:34:48.017Z,1.93
2017-08-31T15:39:51.250Z,1.33
2017-08-31T15:44:54.457Z,2.00
2017-08-31T15:49:57.753Z,2.20
2017-08-31T15:55:00.992Z,1.90
2017-08-31T16:00:04.214Z,1.40
2017-08-31T16:05:07.420Z,1.87
2017-08-31T16:10:10.619Z,1.97
2017-08-31T16:15:13.849Z,2.20
2017-08-31T16:20:17.087Z,2.30
2017-08-31T16:25:20.294Z,2.67
2017-08-31T16:30:23.545Z,2.10
2017-08-31T16:35:26.768Z,2.20
2017-08-31T16:40:30.006Z,3.03
2017-08-31T16:45:33.237Z,2.73
2017-08-31T16:50:36.466Z,2.00
2017-08-31T16:55:39.702Z,1.87
2017-08-31T17:00:43.003Z,2.60
2017-08-31T17:05:46.212Z,1.70
2017-08-31T17:10:49.444Z,1.80
2017-08-31T17:15:52.642Z,1.90
2017-08-31T17:20:55.867Z,1.80
2017-08-31T17:25:59.061Z,1.70
2017-08-31T17:31:02.271Z,2.07
2017-08-31T17:36:05.490Z,2.80
2017-08-31T17:41:08.710Z,2.00
2017-08-31T17:46:12.017Z,2.43
2017-08-31T17:51:15.266Z,2.43
2017-08-31T17:56:18.480Z,2.10
2017-08-31T18:01:21.704Z,2.33
2017-08-31T18:06:24.963Z,2.27
2017-08-31T18:11:28.231Z,2.57
2017-08-31T18:16:31.500Z,2.30
2017-08-31T18:21:34.729Z,3.07
2017-08-31T18:26:37.951Z,2.67
2017-08-31T18:31:41.196Z,2.83
2017-08-31T18:36:44.407Z,2.93
2017-08-31T18:41:47.685Z,3.20
2017-08-31T18:46:50.917Z,3.00
2017-08-31T18:51:54.175Z,2.50
2017-08-31T18:56:57.411Z,3.40
2017-08-31T19:02:00.646Z,3.30
2017-08-31T19:07:03.843Z,3.70
2017-08-31T19:12:07.050Z,3.00
2017-08-31T19:17:10.309Z,3.53
2017-08-31T19:22:13.518Z,2.70
2017-08-31T19:27:16.689Z,3.10
2017-08-31T19:32:19.910Z,3.20
2017-08-31T19:37:23.400Z,3.50
2017-08-31T19:42:26.609Z,3.60
2017-08-31T19:47:29.985Z,3.00
2017-08-31T19:52:33.241Z,4.53
2017-08-31T19:57:36.474Z,3.80
2017-08-31T20:02:39.684Z,4.53
2017-08-31T20:07:42.960Z,4.57
2017-08-31T20:12:46.192Z,3.30
2017-08-31T20:17:49.400Z,4.13
2017-08-31T20:22:52.644Z,3.87
2017-08-31T20:27:55.895Z,3.50
2017-08-31T20:32:59.092Z,3.53
2017-08-31T20:38:02.368Z,3.30
2017-08-31T20:43:05.574Z,3.20
2017-08-31T20:48:08.789Z,2.90
2017-08-31T20:53:12.100Z,3.73
2017-08-31T20:58:15.350Z,3.90
2017-08-31T21:03:18.524Z,3.50
2017-08-31T21:08:21.777Z,3.57
2017-08-31T21:13:24.994Z,3.43
2017-08-31T21:18:28.255Z,3.70
2017-08-31T21:23:31.464Z,3.70
2017-08-31T21:28:34.675Z,3.10
2017-08-31T21:33:37.850Z,5.00
2017-08-31T21:38:41.032Z,2.97
2017-08-31T21:43:44.203Z,3.10
2017-08-31T21:48:47.545Z,2.43
2017-08-31T21:53:50.743Z,3.37
2017-08-31T21:58:53.924Z,3.70
2017-08-31T22:03:57.132Z,4.00
2017-08-31T22:09:00.328Z,3.57
2017-08-31T22:14:03.572Z,3.70
2017-08-31T22:19:06.805Z,4.28
2017-08-31T22:24:10.004Z,3.47
2017-08-31T22:29:13.201Z,3.50
2017-08-31T22:34:16.427Z,3.50
2017-08-31T22:39:19.620Z,4.37
2017-08-31T22:44:22.869Z,3.60
2017-08-31T22:49:26.084Z,3.97
2017-08-31T22:54:29.310Z,4.00
2017-08-31T22:59:32.550Z,3.83
2017-08-31T23:04:35.716Z,4.17
2017-08-31T23:09:38.883Z,3.57
2017-08-31T23:14:42.039Z,4.37
2017-08-31T23:19:45.261Z,4.20
2017-08-31T23:24:48.436Z,4.77
2017-08-31T23:29:51.628Z,4.17
2017-08-31T23:34:54.774Z,4.23
2017-08-31T23:39:57.946Z,4.70
2017-08-31T23:45:01.112Z,4.27
2017-08-31T23:50:04.341Z,5.03
2017-08-31T23:55:07.654Z,4.47
